sensor_id;sensor_type;location;lat;lon;timestamp;P1;durP1;ratioP1;P2;durP2;ratioP2
15500;SDS011;7852;52.228;5.990;2023-07-20T00:04:34;6.8;;;6.5;;
15500;SDS011;7852;52.228;5.990;2023-07-20T00:04:34;7.5;;;7.2;;
15500;SDS011;7852;52.228;5.990;2023-07-20T00:04:34;6.8;;;6.5;;
15500;SDS011;7852;52.228;5.990;2023-07-20T00:04:34;7;;;6.7;;
15500;SDS011;7852;52.228;5.990;2023-07-20T00:04:36;6.9;;;6.6;;
15500;SDS011;7852;52.228;5.990;2023-07-20T00:05:36;6.9;;;6.5;;
15500;SDS011;7852;52.228;5.990;2023-07-20T00:06:36;7.1;;;6.8;;
15500;SDS011;7852;52.228;5.990;2023-07-20T00:07:36;6.9;;;6.6;;
15500;SDS011;7852;52.228;5.990;2023-07-20T00:08:36;6.4;;;6.2;;
15500;SDS011;7852;52.228;5.990;2023-07-20T00:09:36;7.1;;;6.8;;
15500;SDS011;7852;52.228;5.990;2023-07-20T00:10:36;7;;;6.7;;
15500;SDS011;7852;52.228;5.990;2023-07-20T00:11:37;5.9;;;5.7;;
15500;SDS011;7852;52.228;5.990;2023-07-20T00:12:36;7.6;;;7.1;;
15500;SDS011;7852;52.228;5.990;2023-07-20T00:13:36;7;;;6.7;;
15500;SDS011;7852;52.228;5.990;2023-07-20T00:14:36;6.6;;;6.3;;
15500;SDS011;7852;52.228;5.990;2023-07-20T00:15:39;6.3;;;6.1;;
15500;SDS011;7852;52.228;5.990;2023-07-20T00:16:36;7;;;6.7;;
15500;SDS011;7852;52.228;5.990;2023-07-20T00:17:36;6.5;;;6.3;;
15500;SDS011;7852;52.228;5.990;2023-07-20T00:18:36;6.8;;;6.5;;
15500;SDS011;7852;52.228;5.990;2023-07-20T00:19:36;6.3;;;6.1;;
15500;SDS011;7852;52.228;5.990;2023-07-20T00:20:36;5.9;;;5.7;;
15500;SDS011;7852;52.228;5.990;2023-07-20T00:21:36;7.2;;;7;;
15500;SDS011;7852;52.228;5.990;2023-07-20T00:22:36;6.6;;;6.3;;
15500;SDS011;7852;52.228;5.990;2023-07-20T00:23:37;6.4;;;6.2;;
15500;SDS011;7852;52.228;5.990;2023-07-20T00:24:36;6.2;;;6;;
15500;SDS011;7852;52.228;5.990;2023-07-20T00:25:36;6.4;;;6;;
15500;SDS011;7852;52.228;5.990;2023-07-20T00:26:36;6.1;;;5.9;;
15500;SDS011;7852;52.228;5.990;2023-07-20T00:27:36;6.8;;;6.5;;
15500;SDS011;7852;52.228;5.990;2023-07-20T00:28:37;5.9;;;5.7;;
15500;SDS011;7852;52.228;5.990;2023-07-20T00:29:36;6;;;5.8;;
15500;SDS011;7852;52.228;5.990;2023-07-20T00:30:37;6.7;;;6.5;;
15500;SDS011;7852;52.228;5.990;2023-07-20T00:31:36;6.5;;;6.3;;
15500;SDS011;7852;52.228;5.990;2023-07-20T00:32:36;6.1;;;5.8;;
15500;SDS011;7852;52.228;5.990;2023-07-20T00:33:36;6;;;5.7;;
15500;SDS011;7852;52.228;5.990;2023-07-20T00:34:36;6.7;;;6.4;;
15500;SDS011;7852;52.228;5.990;2023-07-20T00:35:36;6;;;5.8;;
15500;SDS011;7852;52.228;5.990;2023-07-20T00:36:36;6.4;;;6.2;;
15500;SDS011;7852;52.228;5.990;2023-07-20T00:37:36;6.7;;;6.4;;
15500;SDS011;7852;52.228;5.990;2023-07-20T00:38:36;6.4;;;6.1;;
15500;SDS011;7852;52.228;5.990;2023-07-20T00:39:36;7.2;;;6.7;;
15500;SDS011;7852;52.228;5.990;2023-07-20T00:40:36;6.2;;;5.9;;
15500;SDS011;7852;52.228;5.990;2023-07-20T00:41:36;7.2;;;6.9;;
15500;SDS011;7852;52.228;5.990;2023-07-20T00:42:36;6.9;;;6.6;;
15500;SDS011;7852;52.228;5.990;2023-07-20T00:43:36;6.8;;;6.5;;
15500;SDS011;7852;52.228;5.990;2023-07-20T00:44:36;7.5;;;7.2;;
15500;SDS011;7852;52.228;5.990;2023-07-20T00:45:36;7.3;;;7;;
15500;SDS011;7852;52.228;5.990;2023-07-20T00:46:36;6.8;;;6.5;;
15500;SDS011;7852;52.228;5.990;2023-07-20T00:47:36;6.5;;;6.3;;
15500;SDS011;7852;52.228;5.990;2023-07-20T00:48:36;7.1;;;6.7;;
15500;SDS011;7852;52.228;5.990;2023-07-20T00:49:36;7.2;;;6.9;;
15500;SDS011;7852;52.228;5.990;2023-07-20T00:50:36;6.2;;;6;;
15500;SDS011;7852;52.228;5.990;2023-07-20T00:51:36;6.3;;;6;;
15500;SDS011;7852;52.228;5.990;2023-07-20T00:52:36;6.6;;;6.3;;
15500;SDS011;7852;52.228;5.990;2023-07-20T00:53:36;6;;;5.8;;
15500;SDS011;7852;52.228;5.990;2023-07-20T00:54:36;6.7;;;6.4;;
15500;SDS011;7852;52.228;5.990;2023-07-20T00:55:36;6.6;;;6.2;;
15500;SDS011;7852;52.228;5.990;2023-07-20T00:56:36;5.9;;;5.7;;
15500;SDS011;7852;52.228;5.990;2023-07-20T00:57:36;6.7;;;6.3;;
15500;SDS011;7852;52.228;5.990;2023-07-20T00:58:36;5.9;;;5.7;;
15500;SDS011;7852;52.228;5.990;2023-07-20T00:59:36;5.7;;;5.5;;
15500;SDS011;7852;52.228;5.990;2023-07-20T01:00:39;6.2;;;5.8;;
15500;SDS011;7852;52.228;5.990;2023-07-20T01:01:37;6.3;;;6.1;;
15500;SDS011;7852;52.228;5.990;2023-07-20T01:02:36;6.8;;;6.5;;
15500;SDS011;7852;52.228;5.990;2023-07-20T01:03:36;6.2;;;5.9;;
15500;SDS011;7852;52.228;5.990;2023-07-20T01:04:36;6.5;;;6.2;;
15500;SDS011;7852;52.228;5.990;2023-07-20T01:05:38;6.2;;;6;;
15500;SDS011;7852;52.228;5.990;2023-07-20T01:06:38;5.1;;;5;;
15500;SDS011;7852;52.228;5.990;2023-07-20T01:07:36;5.9;;;5.7;;
15500;SDS011;7852;52.228;5.990;2023-07-20T01:08:40;6.5;;;6.3;;
15500;SDS011;7852;52.228;5.990;2023-07-20T01:09:38;6;;;5.6;;
15500;SDS011;7852;52.228;5.990;2023-07-20T01:10:38;6.4;;;6.1;;
15500;SDS011;7852;52.228;5.990;2023-07-20T01:11:38;5.9;;;5.7;;
15500;SDS011;7852;52.228;5.990;2023-07-20T01:12:40;6.1;;;5.9;;
15500;SDS011;7852;52.228;5.990;2023-07-20T01:13:36;5.5;;;5.3;;
15500;SDS011;7852;52.228;5.990;2023-07-20T01:14:36;6.2;;;5.9;;
15500;SDS011;7852;52.228;5.990;2023-07-20T01:15:36;6.3;;;6.1;;
15500;SDS011;7852;52.228;5.990;2023-07-20T01:16:36;6;;;5.8;;
15500;SDS011;7852;52.228;5.990;2023-07-20T01:17:36;5.8;;;5.6;;
15500;SDS011;7852;52.228;5.990;2023-07-20T01:18:36;6.1;;;5.9;;
15500;SDS011;7852;52.228;5.990;2023-07-20T01:19:36;5.9;;;5.7;;
15500;SDS011;7852;52.228;5.990;2023-07-20T01:20:36;6.7;;;6.3;;
15500;SDS011;7852;52.228;5.990;2023-07-20T01:21:38;5.7;;;5.5;;
15500;SDS011;7852;52.228;5.990;2023-07-20T01:22:42;6;;;5.8;;
15500;SDS011;7852;52.228;5.990;2023-07-20T01:23:43;5.7;;;5.5;;
15500;SDS011;7852;52.228;5.990;2023-07-20T01:24:45;5.4;;;4.9;;
15500;SDS011;7852;52.228;5.990;2023-07-20T01:25:44;5.8;;;5.6;;
15500;SDS011;7852;52.228;5.990;2023-07-20T01:26:38;5.4;;;5.2;;
15500;SDS011;7852;52.228;5.990;2023-07-20T01:27:41;5.9;;;5.6;;
15500;SDS011;7852;52.228;5.990;2023-07-20T01:28:43;5.9;;;5.7;;
15500;SDS011;7852;52.228;5.990;2023-07-20T01:29:42;4.9;;;4.8;;
15500;SDS011;7852;52.228;5.990;2023-07-20T01:30:43;5.7;;;5.5;;
15500;SDS011;7852;52.228;5.990;2023-07-20T01:31:36;5.7;;;5.5;;
15500;SDS011;7852;52.228;5.990;2023-07-20T01:32:36;5.8;;;5.6;;
15500;SDS011;7852;52.228;5.990;2023-07-20T01:33:36;5.9;;;5.7;;
15500;SDS011;7852;52.228;5.990;2023-07-20T01:34:36;5.7;;;5.5;;
15500;SDS011;7852;52.228;5.990;2023-07-20T01:35:36;5.4;;;5.3;;
15500;SDS011;7852;52.228;5.990;2023-07-20T01:36:36;5.5;;;5.4;;
15500;SDS011;7852;52.228;5.990;2023-07-20T01:37:36;5.7;;;5.6;;
15500;SDS011;7852;52.228;5.990;2023-07-20T01:38:36;5.5;;;5.3;;
15500;SDS011;7852;52.228;5.990;2023-07-20T01:39:36;5.8;;;5.6;;
15500;SDS011;7852;52.228;5.990;2023-07-20T01:40:36;5.8;;;5.6;;
15500;SDS011;7852;52.228;5.990;2023-07-20T01:41:36;5.9;;;5.7;;
15500;SDS011;7852;52.228;5.990;2023-07-20T01:42:36;5.8;;;5.6;;
15500;SDS011;7852;52.228;5.990;2023-07-20T01:43:36;5.4;;;5.2;;
15500;SDS011;7852;52.228;5.990;2023-07-20T01:44:36;6.2;;;6;;
15500;SDS011;7852;52.228;5.990;2023-07-20T01:45:36;5.8;;;5.6;;
15500;SDS011;7852;52.228;5.990;2023-07-20T01:46:36;5.9;;;5.7;;
15500;SDS011;7852;52.228;5.990;2023-07-20T01:47:36;6;;;5.8;;
15500;SDS011;7852;52.228;5.990;2023-07-20T01:48:36;6;;;5.8;;
15500;SDS011;7852;52.228;5.990;2023-07-20T01:49:36;6;;;5.8;;
15500;SDS011;7852;52.228;5.990;2023-07-20T01:50:36;5.4;;;5.2;;
15500;SDS011;7852;52.228;5.990;2023-07-20T01:51:36;5.7;;;5.5;;
15500;SDS011;7852;52.228;5.990;2023-07-20T01:52:36;6.5;;;6.3;;
15500;SDS011;7852;52.228;5.990;2023-07-20T01:53:36;5.9;;;5.7;;
15500;SDS011;7852;52.228;5.990;2023-07-20T01:54:36;5.9;;;5.7;;
15500;SDS011;7852;52.228;5.990;2023-07-20T01:55:36;5.4;;;5.3;;
15500;SDS011;7852;52.228;5.990;2023-07-20T01:56:36;6.4;;;6.2;;
15500;SDS011;7852;52.228;5.990;2023-07-20T01:57:36;5.7;;;5.5;;
15500;SDS011;7852;52.228;5.990;2023-07-20T01:58:36;6.2;;;6;;
15500;SDS011;7852;52.228;5.990;2023-07-20T01:59:38;5.7;;;5.5;;
15500;SDS011;7852;52.228;5.990;2023-07-20T02:00:36;5.7;;;5.5;;
15500;SDS011;7852;52.228;5.990;2023-07-20T02:01:36;5.6;;;5.4;;
15500;SDS011;7852;52.228;5.990;2023-07-20T02:02:36;5.7;;;5.5;;
15500;SDS011;7852;52.228;5.990;2023-07-20T02:03:36;6.2;;;6;;
15500;SDS011;7852;52.228;5.990;2023-07-20T02:04:36;6.2;;;6;;
15500;SDS011;7852;52.228;5.990;2023-07-20T02:05:36;5.6;;;5.4;;
15500;SDS011;7852;52.228;5.990;2023-07-20T02:06:36;6;;;5.8;;
15500;SDS011;7852;52.228;5.990;2023-07-20T02:07:36;6.1;;;5.8;;
15500;SDS011;7852;52.228;5.990;2023-07-20T02:08:36;5.9;;;5.7;;
15500;SDS011;7852;52.228;5.990;2023-07-20T02:09:36;6.3;;;6.1;;
15500;SDS011;7852;52.228;5.990;2023-07-20T02:10:37;6.5;;;6.3;;
15500;SDS011;7852;52.228;5.990;2023-07-20T02:11:36;6.3;;;6.1;;
15500;SDS011;7852;52.228;5.990;2023-07-20T02:12:36;5.8;;;5.6;;
15500;SDS011;7852;52.228;5.990;2023-07-20T02:13:36;5.7;;;5.5;;
15500;SDS011;7852;52.228;5.990;2023-07-20T02:14:36;6;;;5.8;;
15500;SDS011;7852;52.228;5.990;2023-07-20T02:15:36;5.9;;;5.7;;
15500;SDS011;7852;52.228;5.990;2023-07-20T02:16:36;6;;;5.8;;
15500;SDS011;7852;52.228;5.990;2023-07-20T02:17:36;5.7;;;5.5;;
15500;SDS011;7852;52.228;5.990;2023-07-20T02:18:36;5.7;;;5.5;;
15500;SDS011;7852;52.228;5.990;2023-07-20T02:19:36;5.3;;;5.1;;
15500;SDS011;7852;52.228;5.990;2023-07-20T02:20:36;5.8;;;5.6;;
15500;SDS011;7852;52.228;5.990;2023-07-20T02:21:36;5.8;;;5.6;;
15500;SDS011;7852;52.228;5.990;2023-07-20T02:22:36;6;;;5.8;;
15500;SDS011;7852;52.228;5.990;2023-07-20T02:23:36;6.1;;;5.9;;
15500;SDS011;7852;52.228;5.990;2023-07-20T02:24:36;5.8;;;5.6;;
15500;SDS011;7852;52.228;5.990;2023-07-20T02:25:36;5.5;;;5.3;;
15500;SDS011;7852;52.228;5.990;2023-07-20T02:26:36;5.4;;;5.2;;
15500;SDS011;7852;52.228;5.990;2023-07-20T02:27:36;5.6;;;5.4;;
15500;SDS011;7852;52.228;5.990;2023-07-20T02:28:36;5.9;;;5.7;;
15500;SDS011;7852;52.228;5.990;2023-07-20T02:29:36;5.5;;;5.3;;
15500;SDS011;7852;52.228;5.990;2023-07-20T02:30:37;5.9;;;5.7;;
15500;SDS011;7852;52.228;5.990;2023-07-20T02:31:36;5.6;;;5.4;;
15500;SDS011;7852;52.228;5.990;2023-07-20T02:32:36;6;;;5.8;;
15500;SDS011;7852;52.228;5.990;2023-07-20T02:33:36;6;;;5.8;;
15500;SDS011;7852;52.228;5.990;2023-07-20T02:34:36;5.4;;;5.2;;
15500;SDS011;7852;52.228;5.990;2023-07-20T02:35:36;6;;;5.8;;
15500;SDS011;7852;52.228;5.990;2023-07-20T02:36:36;7;;;6.6;;
15500;SDS011;7852;52.228;5.990;2023-07-20T02:37:36;5.7;;;5.5;;
15500;SDS011;7852;52.228;5.990;2023-07-20T02:38:36;5.7;;;5.5;;
15500;SDS011;7852;52.228;5.990;2023-07-20T02:39:36;5.8;;;5.6;;
15500;SDS011;7852;52.228;5.990;2023-07-20T02:40:36;6.1;;;5.9;;
15500;SDS011;7852;52.228;5.990;2023-07-20T02:41:36;5.7;;;5.5;;
15500;SDS011;7852;52.228;5.990;2023-07-20T02:42:36;5.5;;;5.3;;
15500;SDS011;7852;52.228;5.990;2023-07-20T02:43:36;5.9;;;5.7;;
15500;SDS011;7852;52.228;5.990;2023-07-20T02:44:36;5.7;;;5.5;;
15500;SDS011;7852;52.228;5.990;2023-07-20T02:58:39;6.9;;;6.6;;
15500;SDS011;7852;52.228;5.990;2023-07-20T02:59:36;7;;;6.6;;
15500;SDS011;7852;52.228;5.990;2023-07-20T03:00:36;6.1;;;5.9;;
15500;SDS011;7852;52.228;5.990;2023-07-20T03:01:36;7.1;;;6.9;;
15500;SDS011;7852;52.228;5.990;2023-07-20T03:02:36;5.8;;;5.6;;
15500;SDS011;7852;52.228;5.990;2023-07-20T03:03:36;5.7;;;5.5;;
15500;SDS011;7852;52.228;5.990;2023-07-20T03:04:36;6.3;;;6;;
15500;SDS011;7852;52.228;5.990;2023-07-20T03:05:36;6.3;;;6.1;;
15500;SDS011;7852;52.228;5.990;2023-07-20T03:06:36;8;;;7.7;;
15500;SDS011;7852;52.228;5.990;2023-07-20T03:07:36;6.2;;;6;;
15500;SDS011;7852;52.228;5.990;2023-07-20T03:08:36;6;;;5.8;;
15500;SDS011;7852;52.228;5.990;2023-07-20T03:09:36;6.5;;;6.3;;
15500;SDS011;7852;52.228;5.990;2023-07-20T03:10:39;6.3;;;6.1;;
15500;SDS011;7852;52.228;5.990;2023-07-20T03:11:36;7.2;;;7;;
15500;SDS011;7852;52.228;5.990;2023-07-20T03:12:36;6;;;5.8;;
15500;SDS011;7852;52.228;5.990;2023-07-20T03:13:36;7.8;;;7.6;;
15500;SDS011;7852;52.228;5.990;2023-07-20T03:14:36;7.4;;;7.2;;
15500;SDS011;7852;52.228;5.990;2023-07-20T03:15:38;7.5;;;7.2;;
15500;SDS011;7852;52.228;5.990;2023-07-20T03:16:36;6;;;5.8;;
15500;SDS011;7852;52.228;5.990;2023-07-20T03:17:36;8.2;;;7.9;;
15500;SDS011;7852;52.228;5.990;2023-07-20T03:18:36;7.6;;;7.4;;
15500;SDS011;7852;52.228;5.990;2023-07-20T03:19:36;7.9;;;7.6;;
15500;SDS011;7852;52.228;5.990;2023-07-20T03:20:38;7.2;;;7;;
15500;SDS011;7852;52.228;5.990;2023-07-20T03:21:36;8;;;7.7;;
15500;SDS011;7852;52.228;5.990;2023-07-20T03:22:36;8.3;;;8;;
15500;SDS011;7852;52.228;5.990;2023-07-20T03:23:36;7.3;;;7.1;;
15500;SDS011;7852;52.228;5.990;2023-07-20T03:24:36;7.5;;;7.2;;
15500;SDS011;7852;52.228;5.990;2023-07-20T03:25:36;6.9;;;6.7;;
15500;SDS011;7852;52.228;5.990;2023-07-20T03:26:36;7.1;;;6.8;;
15500;SDS011;7852;52.228;5.990;2023-07-20T03:27:36;7.2;;;7;;
15500;SDS011;7852;52.228;5.990;2023-07-20T03:28:36;6.9;;;6.7;;
15500;SDS011;7852;52.228;5.990;2023-07-20T03:29:36;7.5;;;7.2;;
15500;SDS011;7852;52.228;5.990;2023-07-20T03:30:36;7.4;;;7.2;;
15500;SDS011;7852;52.228;5.990;2023-07-20T03:31:36;7.5;;;7.3;;
15500;SDS011;7852;52.228;5.990;2023-07-20T03:41:36;7.2;;;7;;
15500;SDS011;7852;52.228;5.990;2023-07-20T03:42:36;6.6;;;6.3;;
15500;SDS011;7852;52.228;5.990;2023-07-20T03:43:36;6.5;;;6.3;;
15500;SDS011;7852;52.228;5.990;2023-07-20T03:44:36;6.7;;;6.4;;
15500;SDS011;7852;52.228;5.990;2023-07-20T03:45:36;6.9;;;6.7;;
15500;SDS011;7852;52.228;5.990;2023-07-20T03:46:36;6.5;;;6.3;;
15500;SDS011;7852;52.228;5.990;2023-07-20T03:47:36;5.9;;;5.7;;
15500;SDS011;7852;52.228;5.990;2023-07-20T03:48:36;5.9;;;5.7;;
15500;SDS011;7852;52.228;5.990;2023-07-20T03:49:36;5.8;;;5.6;;
15500;SDS011;7852;52.228;5.990;2023-07-20T03:50:36;5.6;;;5.4;;
15500;SDS011;7852;52.228;5.990;2023-07-20T03:51:36;6.1;;;5.9;;
15500;SDS011;7852;52.228;5.990;2023-07-20T03:52:36;5.5;;;5.3;;
15500;SDS011;7852;52.228;5.990;2023-07-20T03:53:36;5.7;;;5.3;;
15500;SDS011;7852;52.228;5.990;2023-07-20T03:54:36;5.7;;;5.5;;
15500;SDS011;7852;52.228;5.990;2023-07-20T03:55:36;5.8;;;5.6;;
15500;SDS011;7852;52.228;5.990;2023-07-20T03:56:36;5.8;;;5.6;;
15500;SDS011;7852;52.228;5.990;2023-07-20T03:57:36;6.2;;;6;;
15500;SDS011;7852;52.228;5.990;2023-07-20T03:58:36;6.3;;;6.1;;
15500;SDS011;7852;52.228;5.990;2023-07-20T03:59:36;6.5;;;6.3;;
15500;SDS011;7852;52.228;5.990;2023-07-20T04:00:36;7;;;6.8;;
15500;SDS011;7852;52.228;5.990;2023-07-20T04:01:36;6.9;;;6.7;;
15500;SDS011;7852;52.228;5.990;2023-07-20T04:02:36;7;;;6.7;;
15500;SDS011;7852;52.228;5.990;2023-07-20T04:03:36;6.5;;;6.2;;
15500;SDS011;7852;52.228;5.990;2023-07-20T04:04:36;5.8;;;5.6;;
15500;SDS011;7852;52.228;5.990;2023-07-20T04:05:36;5.7;;;5.5;;
15500;SDS011;7852;52.228;5.990;2023-07-20T04:06:37;6.1;;;5.9;;
15500;SDS011;7852;52.228;5.990;2023-07-20T04:07:36;6;;;5.8;;
15500;SDS011;7852;52.228;5.990;2023-07-20T04:08:36;6.1;;;5.9;;
15500;SDS011;7852;52.228;5.990;2023-07-20T04:09:36;6.2;;;6;;
15500;SDS011;7852;52.228;5.990;2023-07-20T04:10:36;6.7;;;6.5;;
15500;SDS011;7852;52.228;5.990;2023-07-20T04:11:36;6.9;;;6.7;;
15500;SDS011;7852;52.228;5.990;2023-07-20T04:12:36;7.7;;;7.4;;
15500;SDS011;7852;52.228;5.990;2023-07-20T04:13:36;6.6;;;6.4;;
15500;SDS011;7852;52.228;5.990;2023-07-20T04:14:36;6.7;;;6.5;;
15500;SDS011;7852;52.228;5.990;2023-07-20T04:15:36;6.9;;;6.7;;
15500;SDS011;7852;52.228;5.990;2023-07-20T04:16:36;6.7;;;6.4;;
15500;SDS011;7852;52.228;5.990;2023-07-20T04:17:36;6.5;;;6.3;;
15500;SDS011;7852;52.228;5.990;2023-07-20T04:18:36;7.1;;;6.8;;
15500;SDS011;7852;52.228;5.990;2023-07-20T04:19:36;6.5;;;6.3;;
15500;SDS011;7852;52.228;5.990;2023-07-20T04:20:36;6.8;;;6.6;;
15500;SDS011;7852;52.228;5.990;2023-07-20T04:21:39;6.8;;;6.5;;
15500;SDS011;7852;52.228;5.990;2023-07-20T04:22:36;6.5;;;6.3;;
15500;SDS011;7852;52.228;5.990;2023-07-20T04:23:36;7.4;;;7.2;;
15500;SDS011;7852;52.228;5.990;2023-07-20T04:24:36;6.7;;;6.5;;
15500;SDS011;7852;52.228;5.990;2023-07-20T04:25:38;7.2;;;6.9;;
15500;SDS011;7852;52.228;5.990;2023-07-20T04:26:36;6.9;;;6.7;;
15500;SDS011;7852;52.228;5.990;2023-07-20T04:27:36;6.8;;;6.5;;
15500;SDS011;7852;52.228;5.990;2023-07-20T04:28:36;5.9;;;5.6;;
15500;SDS011;7852;52.228;5.990;2023-07-20T04:29:36;5.6;;;5.4;;
15500;SDS011;7852;52.228;5.990;2023-07-20T04:30:36;5.2;;;5;;
15500;SDS011;7852;52.228;5.990;2023-07-20T04:31:36;6;;;5.2;;
15500;SDS011;7852;52.228;5.990;2023-07-20T04:32:36;5.3;;;4.9;;
15500;SDS011;7852;52.228;5.990;2023-07-20T04:33:36;5.1;;;4.9;;
15500;SDS011;7852;52.228;5.990;2023-07-20T04:34:36;6.1;;;5.8;;
15500;SDS011;7852;52.228;5.990;2023-07-20T04:35:52;5.4;;;5.2;;
15500;SDS011;7852;52.228;5.990;2023-07-20T04:36:36;5.7;;;5.5;;
15500;SDS011;7852;52.228;5.990;2023-07-20T04:37:36;5.7;;;5.4;;
15500;SDS011;7852;52.228;5.990;2023-07-20T04:38:36;5.7;;;5.5;;
15500;SDS011;7852;52.228;5.990;2023-07-20T15:37:48;48.2;;;46.7;;
15500;SDS011;7852;52.228;5.990;2023-07-20T15:38:06;49.5;;;47.9;;
15500;SDS011;7852;52.228;5.990;2023-07-20T15:39:36;48.7;;;47.1;;
15500;SDS011;7852;52.228;5.990;2023-07-20T15:40:17;46.9;;;45.4;;
15500;SDS011;7852;52.228;5.990;2023-07-20T15:41:08;53.1;;;51.4;;
15500;SDS011;7852;52.228;5.990;2023-07-20T15:42:09;46.2;;;44.7;;
15500;SDS011;7852;52.228;5.990;2023-07-20T15:42:59;40.2;;;38.8;;
15500;SDS011;7852;52.228;5.990;2023-07-20T15:43:59;47.4;;;45.9;;
15500;SDS011;7852;52.228;5.990;2023-07-20T15:44:49;50.1;;;48.5;;
15500;SDS011;7852;52.228;5.990;2023-07-20T15:45:49;54.2;;;52.4;;
15500;SDS011;7852;52.228;5.990;2023-07-20T15:46:59;48.1;;;46.6;;
15500;SDS011;7852;52.228;5.990;2023-07-20T15:48:19;59.1;;;57.1;;
15500;SDS011;7852;52.228;5.990;2023-07-20T15:49:39;66.5;;;64.3;;
15500;SDS011;7852;52.228;5.990;2023-07-20T15:49:55;81.1;;;78.4;;
15500;SDS011;7852;52.228;5.990;2023-07-20T15:50:22;55.7;;;53.9;;
15500;SDS011;7852;52.228;5.990;2023-07-20T15:51:22;56.9;;;55;;
15500;SDS011;7852;52.228;5.990;2023-07-20T15:52:22;66.3;;;64.1;;
15500;SDS011;7852;52.228;5.990;2023-07-20T15:53:22;43.4;;;42;;
15500;SDS011;7852;52.228;5.990;2023-07-20T15:54:22;50.2;;;48.6;;
15500;SDS011;7852;52.228;5.990;2023-07-20T15:55:22;53.4;;;51.7;;
15500;SDS011;7852;52.228;5.990;2023-07-20T15:56:22;51;;;49.3;;
15500;SDS011;7852;52.228;5.990;2023-07-20T15:57:22;64.1;;;62;;
15500;SDS011;7852;52.228;5.990;2023-07-20T15:58:22;56.8;;;55;;
15500;SDS011;7852;52.228;5.990;2023-07-20T15:59:22;58.5;;;56.6;;
15500;SDS011;7852;52.228;5.990;2023-07-20T16:00:22;34.7;;;33.6;;
15500;SDS011;7852;52.228;5.990;2023-07-20T16:01:22;32;;;31;;
15500;SDS011;7852;52.228;5.990;2023-07-20T16:02:22;29.9;;;28.9;;
15500;SDS011;7852;52.228;5.990;2023-07-20T16:03:22;53.4;;;51.7;;
15500;SDS011;7852;52.228;5.990;2023-07-20T16:04:22;59.1;;;57.1;;
15500;SDS011;7852;52.228;5.990;2023-07-20T16:05:22;37.6;;;36.4;;
15500;SDS011;7852;52.228;5.990;2023-07-20T16:06:22;57.9;;;56;;
15500;SDS011;7852;52.228;5.990;2023-07-20T16:07:22;44.1;;;42.7;;
15500;SDS011;7852;52.228;5.990;2023-07-20T16:08:22;29.8;;;28.9;;
15500;SDS011;7852;52.228;5.990;2023-07-20T16:09:22;48;;;46.5;;
15500;SDS011;7852;52.228;5.990;2023-07-20T16:10:22;25.6;;;24.8;;
15500;SDS011;7852;52.228;5.990;2023-07-20T16:11:22;24.8;;;23.4;;
15500;SDS011;7852;52.228;5.990;2023-07-20T16:12:22;23.3;;;22.6;;
15500;SDS011;7852;52.228;5.990;2023-07-20T16:13:22;31.3;;;30.3;;
15500;SDS011;7852;52.228;5.990;2023-07-20T16:14:22;44.7;;;43.3;;
15500;SDS011;7852;52.228;5.990;2023-07-20T16:15:22;48.5;;;46.9;;
15500;SDS011;7852;52.228;5.990;2023-07-20T16:16:22;51.4;;;49.7;;
15500;SDS011;7852;52.228;5.990;2023-07-20T16:17:22;50.9;;;49.2;;
15500;SDS011;7852;52.228;5.990;2023-07-20T16:18:22;41.8;;;40.4;;
15500;SDS011;7852;52.228;5.990;2023-07-20T16:19:22;43.9;;;42.4;;
15500;SDS011;7852;52.228;5.990;2023-07-20T16:20:22;36.4;;;35.2;;
15500;SDS011;7852;52.228;5.990;2023-07-20T16:21:22;38.4;;;37.1;;
15500;SDS011;7852;52.228;5.990;2023-07-20T16:22:22;43.3;;;41.9;;
15500;SDS011;7852;52.228;5.990;2023-07-20T16:23:22;43.4;;;41.9;;
15500;SDS011;7852;52.228;5.990;2023-07-20T16:24:22;43.1;;;41.6;;
15500;SDS011;7852;52.228;5.990;2023-07-20T16:25:22;28.5;;;27.6;;
15500;SDS011;7852;52.228;5.990;2023-07-20T16:26:22;33;;;32;;
15500;SDS011;7852;52.228;5.990;2023-07-20T16:27:22;38.6;;;37.4;;
15500;SDS011;7852;52.228;5.990;2023-07-20T16:28:22;40.5;;;39.2;;
15500;SDS011;7852;52.228;5.990;2023-07-20T16:29:22;46.2;;;44.7;;
15500;SDS011;7852;52.228;5.990;2023-07-20T16:30:22;38.2;;;37;;
15500;SDS011;7852;52.228;5.990;2023-07-20T16:31:22;33.9;;;32.8;;
15500;SDS011;7852;52.228;5.990;2023-07-20T16:32:22;30.4;;;29.4;;
15500;SDS011;7852;52.228;5.990;2023-07-20T16:33:22;20.4;;;19.8;;
15500;SDS011;7852;52.228;5.990;2023-07-20T16:34:22;24.5;;;23.7;;
15500;SDS011;7852;52.228;5.990;2023-07-20T16:35:22;23.1;;;22.4;;
15500;SDS011;7852;52.228;5.990;2023-07-20T16:36:22;31.3;;;30.3;;
15500;SDS011;7852;52.228;5.990;2023-07-20T16:37:22;31;;;30;;
15500;SDS011;7852;52.228;5.990;2023-07-20T16:38:22;28;;;27.1;;
15500;SDS011;7852;52.228;5.990;2023-07-20T16:39:22;31.9;;;30.7;;
15500;SDS011;7852;52.228;5.990;2023-07-20T16:40:22;38.3;;;37.1;;
15500;SDS011;7852;52.228;5.990;2023-07-20T16:41:22;34;;;32.9;;
15500;SDS011;7852;52.228;5.990;2023-07-20T16:42:22;30.6;;;29.6;;
15500;SDS011;7852;52.228;5.990;2023-07-20T16:43:22;38.2;;;37;;
15500;SDS011;7852;52.228;5.990;2023-07-20T16:44:22;38.2;;;37;;
15500;SDS011;7852;52.228;5.990;2023-07-20T16:45:22;24.4;;;23.6;;
15500;SDS011;7852;52.228;5.990;2023-07-20T16:46:22;20.5;;;19.9;;
15500;SDS011;7852;52.228;5.990;2023-07-20T16:47:22;30.8;;;29.8;;
15500;SDS011;7852;52.228;5.990;2023-07-20T16:48:22;30.8;;;29.8;;
15500;SDS011;7852;52.228;5.990;2023-07-20T16:49:22;27.3;;;26.4;;
15500;SDS011;7852;52.228;5.990;2023-07-20T16:50:22;26.5;;;25.6;;
15500;SDS011;7852;52.228;5.990;2023-07-20T16:51:22;30.9;;;29.9;;
15500;SDS011;7852;52.228;5.990;2023-07-20T16:52:24;33.8;;;32.7;;
15500;SDS011;7852;52.228;5.990;2023-07-20T16:53:22;30.8;;;29.8;;
15500;SDS011;7852;52.228;5.990;2023-07-20T16:54:22;32.8;;;31.7;;
15500;SDS011;7852;52.228;5.990;2023-07-20T16:55:22;29.7;;;28.7;;
15500;SDS011;7852;52.228;5.990;2023-07-20T16:56:22;37;;;35.8;;
15500;SDS011;7852;52.228;5.990;2023-07-20T16:57:22;30.7;;;29.7;;
15500;SDS011;7852;52.228;5.990;2023-07-20T16:58:22;30.4;;;29.4;;
15500;SDS011;7852;52.228;5.990;2023-07-20T16:59:22;29.5;;;28.5;;
15500;SDS011;7852;52.228;5.990;2023-07-20T17:00:22;28;;;27.1;;
15500;SDS011;7852;52.228;5.990;2023-07-20T17:01:22;32.6;;;31.5;;
15500;SDS011;7852;52.228;5.990;2023-07-20T17:02:22;43.6;;;42.2;;
15500;SDS011;7852;52.228;5.990;2023-07-20T17:03:22;38.6;;;37.3;;
15500;SDS011;7852;52.228;5.990;2023-07-20T17:04:22;37.3;;;36.1;;
15500;SDS011;7852;52.228;5.990;2023-07-20T17:05:22;19.6;;;19;;
15500;SDS011;7852;52.228;5.990;2023-07-20T17:06:22;27.9;;;27;;
15500;SDS011;7852;52.228;5.990;2023-07-20T17:07:22;31.8;;;30.7;;
15500;SDS011;7852;52.228;5.990;2023-07-20T17:08:22;22.4;;;21.7;;
15500;SDS011;7852;52.228;5.990;2023-07-20T17:09:22;27.4;;;26.5;;
15500;SDS011;7852;52.228;5.990;2023-07-20T17:10:22;29.7;;;28.7;;
15500;SDS011;7852;52.228;5.990;2023-07-20T17:11:22;28.1;;;27.2;;
15500;SDS011;7852;52.228;5.990;2023-07-20T17:12:22;31.1;;;30;;
15500;SDS011;7852;52.228;5.990;2023-07-20T17:13:22;31.7;;;30.7;;
15500;SDS011;7852;52.228;5.990;2023-07-20T17:14:22;33;;;31.8;;
15500;SDS011;7852;52.228;5.990;2023-07-20T17:15:22;52.4;;;50.7;;
15500;SDS011;7852;52.228;5.990;2023-07-20T17:16:22;45.5;;;44;;
15500;SDS011;7852;52.228;5.990;2023-07-20T17:17:22;56.6;;;54.5;;
15500;SDS011;7852;52.228;5.990;2023-07-20T17:18:22;43.5;;;42;;
15500;SDS011;7852;52.228;5.990;2023-07-20T17:19:22;37;;;35.8;;
15500;SDS011;7852;52.228;5.990;2023-07-20T17:20:22;33.2;;;32.1;;
15500;SDS011;7852;52.228;5.990;2023-07-20T17:21:22;41.9;;;40.4;;
15500;SDS011;7852;52.228;5.990;2023-07-20T17:22:22;46.8;;;45.3;;
15500;SDS011;7852;52.228;5.990;2023-07-20T17:23:22;60.4;;;58.4;;
15500;SDS011;7852;52.228;5.990;2023-07-20T17:24:22;62.2;;;60.1;;
15500;SDS011;7852;52.228;5.990;2023-07-20T17:25:22;61.6;;;59.6;;
15500;SDS011;7852;52.228;5.990;2023-07-20T17:26:22;62.5;;;60.4;;
15500;SDS011;7852;52.228;5.990;2023-07-20T17:27:22;67.7;;;65.5;;
15500;SDS011;7852;52.228;5.990;2023-07-20T17:28:22;63.5;;;61.4;;
15500;SDS011;7852;52.228;5.990;2023-07-20T17:29:22;49.1;;;47.5;;
15500;SDS011;7852;52.228;5.990;2023-07-20T17:30:22;65.7;;;63.5;;
15500;SDS011;7852;52.228;5.990;2023-07-20T17:31:22;63.2;;;61.1;;
15500;SDS011;7852;52.228;5.990;2023-07-20T17:32:22;46.8;;;45.3;;
15500;SDS011;7852;52.228;5.990;2023-07-20T17:33:22;37.1;;;35.9;;
15500;SDS011;7852;52.228;5.990;2023-07-20T17:34:22;33.4;;;32.3;;
15500;SDS011;7852;52.228;5.990;2023-07-20T17:35:22;46.4;;;44.8;;
15500;SDS011;7852;52.228;5.990;2023-07-20T17:36:22;45.2;;;43.7;;